Time;durP1;ratioP1;P1;durP2;ratioP2;P2;SDS_P1;SDS_P2;PMS_P1;PMS_P2;Temp;Humidity;BMP_temperature;BMP_pressure;BME280_temperature;BME280_humidity;BME280_pressure;Samples;Min_cycle;Max_cycle;Signal;HPM_P1;HPM_P2
2021/08/07 00:00:54;;;;;;;18.75;4.90;;;;;;;;;;5117222;27;20570;-70
2021/08/07 00:03:20;;;;;;;7.55;4.07;;;;;;;;;;5135695;27;20061;-69
2021/08/07 00:05:46;;;;;;;7.15;4.05;;;;;;;;;;5117165;27;20114;-70
2021/08/07 00:08:12;;;;;;;7.03;4.35;;;;;;;;;;5135900;27;20090;-70
2021/08/07 00:10:39;;;;;;;7.20;4.28;;;;;;;;;;5135534;27;20102;-70
2021/08/07 00:13:05;;;;;;;8.25;4.38;;;;;;;;;;5135540;27;20042;-70
2021/08/07 00:15:31;;;;;;;13.20;5.20;;;;;;;;;;5135454;27;20102;-70
2021/08/07 00:17:58;;;;;;;10.27;5.03;;;;;;;;;;5135410;27;20126;-70
2021/08/07 00:20:24;;;;;;;6.85;4.45;;;;;;;;;;5135332;27;20039;-70
2021/08/07 00:22:50;;;;;;;10.63;4.80;;;;;;;;;;5135357;27;20121;-70
2021/08/07 00:25:17;;;;;;;11.35;5.32;;;;;;;;;;5134739;27;20471;-70
2021/08/07 00:27:43;;;;;;;14.18;7.13;;;;;;;;;;5135141;27;20102;-70
2021/08/07 00:30:10;;;;;;;13.82;8.45;;;;;;;;;;5135237;27;20045;-70
2021/08/07 00:32:36;;;;;;;21.70;12.68;;;;;;;;;;5116701;27;20030;-70
2021/08/07 00:35:05;;;;;;;22.48;15.02;;;;;;;;;;5135093;27;20094;-70
2021/08/07 00:37:31;;;;;;;30.70;16.35;;;;;;;;;;5134752;27;20168;-70
2021/08/07 00:39:58;;;;;;;24.80;15.80;;;;;;;;;;5134943;27;20023;-70
2021/08/07 00:42:25;;;;;;;27.42;15.93;;;;;;;;;;5134971;27;20011;-70
2021/08/07 00:44:51;;;;;;;23.63;15.13;;;;;;;;;;5116420;27;20024;-70
2021/08/07 00:47:17;;;;;;;26.58;15.23;;;;;;;;;;5134521;27;20118;-70
2021/08/07 00:49:43;;;;;;;27.40;14.80;;;;;;;;;;5112489;28;20381;-70
2021/08/07 00:52:10;;;;;;;21.92;13.35;;;;;;;;;;5112904;28;20051;-70
2021/08/07 00:54:39;;;;;;;23.63;13.20;;;;;;;;;;5114186;28;20027;-70
2021/08/07 00:57:06;;;;;;;22.85;12.45;;;;;;;;;;5112792;28;20011;-70
2021/08/07 00:59:32;;;;;;;22.50;11.32;;;;;;;;;;5113786;28;20472;-70
2021/08/07 01:02:00;;;;;;;16.65;9.73;;;;;;;;;;5113839;27;20122;-70
2021/08/07 01:04:27;;;;;;;15.23;8.30;;;;;;;;;;5114012;28;20011;-70
2021/08/07 01:07:05;;;;;;;14.82;7.05;;;;;;;;;;5113617;28;20563;-70
2021/08/07 01:09:57;;;;;;;11.85;6.63;;;;;;;;;;5114020;28;20063;-70
2021/08/07 01:12:27;;;;;;;13.13;7.85;;;;;;;;;;5113999;28;20020;-69
2021/08/07 01:14:55;;;;;;;11.35;7.38;;;;;;;;;;5113849;28;20076;-69
2021/08/07 01:17:26;;;;;;;12.20;7.57;;;;;;;;;;5113856;28;20105;-70
2021/08/07 01:20:04;;;;;;;14.93;7.55;;;;;;;;;;5113695;28;20015;-68
2021/08/07 01:22:39;;;;;;;17.52;9.07;;;;;;;;;;5113724;28;20024;-68
2021/08/07 01:25:08;;;;;;;15.32;9.80;;;;;;;;;;5112409;28;20036;-69
2021/08/07 01:27:38;;;;;;;14.68;9.02;;;;;;;;;;5113674;28;20020;-68
2021/08/07 01:30:08;;;;;;;14.20;8.48;;;;;;;;;;5113559;28;20123;-71
2021/08/07 01:32:35;;;;;;;17.45;9.15;;;;;;;;;;5113645;28;20043;-68
2021/08/07 01:35:02;;;;;;;12.65;8.27;;;;;;;;;;5113830;28;20027;-70
2021/08/07 01:37:28;;;;;;;16.73;8.38;;;;;;;;;;5113355;28;20489;-69
2021/08/07 01:39:55;;;;;;;17.35;7.70;;;;;;;;;;5113450;28;20030;-68
2021/08/07 01:42:22;;;;;;;11.98;8.05;;;;;;;;;;5113512;28;20085;-68
2021/08/07 01:44:49;;;;;;;18.48;7.80;;;;;;;;;;5113126;28;20425;-69
2021/08/07 01:47:44;;;;;;;16.55;7.07;;;;;;;;;;5113449;28;20099;-68
2021/08/07 01:50:17;;;;;;;16.02;7.40;;;;;;;;;;5090498;28;20052;-68
2021/08/07 01:52:46;;;;;;;12.10;7.18;;;;;;;;;;5113413;28;20456;-70
2021/08/07 01:55:15;;;;;;;13.35;6.97;;;;;;;;;;5113369;28;20038;-70
2021/08/07 01:57:48;;;;;;;11.75;7.07;;;;;;;;;;5113338;28;20030;-70
2021/08/07 02:00:15;;;;;;;15.07;7.07;;;;;;;;;;5111946;28;20035;-70
2021/08/07 02:02:41;;;;;;;13.95;6.30;;;;;;;;;;5113310;28;20069;-71
2021/08/07 02:05:08;;;;;;;13.02;6.22;;;;;;;;;;5113309;28;20020;-67
2021/08/07 02:07:35;;;;;;;14.13;6.70;;;;;;;;;;5113198;28;20020;-70
2021/08/07 02:10:02;;;;;;;12.25;6.15;;;;;;;;;;5112015;28;20027;-70
2021/08/07 02:12:28;;;;;;;12.02;6.57;;;;;;;;;;5111918;28;20038;-70
2021/08/07 02:14:56;;;;;;;11.07;5.97;;;;;;;;;;5111884;28;20515;-71
2021/08/07 02:17:22;;;;;;;12.15;5.68;;;;;;;;;;5113185;28;20072;-70
2021/08/07 02:19:49;;;;;;;11.73;5.15;;;;;;;;;;5112838;28;20090;-70
2021/08/07 02:22:18;;;;;;;16.92;6.32;;;;;;;;;;5113017;28;20122;-70
2021/08/07 02:24:44;;;;;;;12.68;6.38;;;;;;;;;;5113175;28;20126;-69
2021/08/07 02:27:11;;;;;;;12.90;6.80;;;;;;;;;;5111511;28;20024;-69
2021/08/07 02:29:39;;;;;;;11.63;5.38;;;;;;;;;;5111721;28;20024;-69
2021/08/07 02:32:05;;;;;;;13.02;6.22;;;;;;;;;;5113149;28;20031;-69
2021/08/07 02:34:32;;;;;;;9.38;5.80;;;;;;;;;;5113035;28;20102;-71
2021/08/07 02:36:59;;;;;;;9.38;6.43;;;;;;;;;;5113019;28;20019;-70
2021/08/07 02:39:26;;;;;;;12.10;6.22;;;;;;;;;;5111742;28;20112;-70
2021/08/07 02:41:53;;;;;;;15.73;6.68;;;;;;;;;;5112933;28;20027;-70
2021/08/07 02:44:20;;;;;;;14.43;6.07;;;;;;;;;;5113205;28;20096;-68
2021/08/07 02:46:47;;;;;;;13.25;6.18;;;;;;;;;;5112968;28;20084;-70
2021/08/07 02:49:13;;;;;;;13.48;6.15;;;;;;;;;;5112712;28;20396;-70
2021/08/07 02:51:40;;;;;;;11.80;5.35;;;;;;;;;;5115231;28;20023;-69
2021/08/07 02:54:06;;;;;;;10.90;6.07;;;;;;;;;;5116608;28;20184;-70
2021/08/07 02:56:33;;;;;;;14.15;6.10;;;;;;;;;;5115182;28;20091;-70
2021/08/07 02:58:59;;;;;;;12.65;7.38;;;;;;;;;;5116184;28;20098;-70
2021/08/07 03:01:25;;;;;;;16.23;7.63;;;;;;;;;;5114981;28;20119;-71
2021/08/07 03:03:52;;;;;;;15.35;7.47;;;;;;;;;;5116354;28;20507;-69
2021/08/07 03:06:18;;;;;;;12.07;7.32;;;;;;;;;;5116082;28;20053;-69
2021/08/07 03:08:44;;;;;;;11.68;7.55;;;;;;;;;;5115001;28;20106;-70
2021/08/07 03:11:15;;;;;;;18.02;7.95;;;;;;;;;;5114879;28;20114;-69
2021/08/07 03:13:41;;;;;;;10.73;6.63;;;;;;;;;;5116299;28;20024;-71
2021/08/07 03:16:07;;;;;;;11.15;6.93;;;;;;;;;;5116131;28;20032;-71
2021/08/07 03:18:34;;;;;;;14.93;7.20;;;;;;;;;;5116034;28;20027;-71
2021/08/07 03:21:00;;;;;;;12.48;6.80;;;;;;;;;;5114674;28;20034;-71
2021/08/07 03:23:26;;;;;;;10.82;6.30;;;;;;;;;;5115938;28;20149;-69
2021/08/07 03:25:52;;;;;;;15.48;7.25;;;;;;;;;;5115915;28;20121;-70
2021/08/07 03:28:18;;;;;;;14.10;6.32;;;;;;;;;;5114584;28;20541;-71
2021/08/07 03:30:45;;;;;;;14.98;6.47;;;;;;;;;;5115857;28;20070;-70
2021/08/07 03:33:11;;;;;;;14.45;6.60;;;;;;;;;;5114501;28;20388;-70
2021/08/07 03:35:37;;;;;;;17.42;7.50;;;;;;;;;;5115709;28;20046;-69
2021/08/07 03:38:03;;;;;;;11.52;6.20;;;;;;;;;;5115721;28;20055;-70
2021/08/07 03:40:29;;;;;;;15.45;6.55;;;;;;;;;;5115792;28;20092;-69
2021/08/07 03:42:56;;;;;;;13.95;7.07;;;;;;;;;;5115870;28;20020;-71
2021/08/07 03:45:22;;;;;;;8.68;6.38;;;;;;;;;;5115529;28;20107;-70
2021/08/07 03:47:50;;;;;;;14.48;6.20;;;;;;;;;;5115561;28;20026;-71
2021/08/07 03:50:18;;;;;;;15.02;6.40;;;;;;;;;;5115078;28;20051;-71
2021/08/07 03:52:45;;;;;;;8.88;5.70;;;;;;;;;;5115422;28;20034;-71
2021/08/07 03:55:11;;;;;;;14.18;6.60;;;;;;;;;;5115343;28;20019;-71
2021/08/07 03:58:06;;;;;;;14.15;6.13;;;;;;;;;;5115303;28;20024;-71
2021/08/07 04:00:34;;;;;;;16.60;6.53;;;;;;;;;;5097726;28;20172;-70
2021/08/07 04:03:01;;;;;;;17.80;7.28;;;;;;;;;;5115431;28;20020;-69
2021/08/07 04:05:27;;;;;;;16.42;6.60;;;;;;;;;;5115167;28;20098;-71
2021/08/07 04:08:00;;;;;;;12.60;6.18;;;;;;;;;;5115102;28;20041;-69
2021/08/07 04:10:26;;;;;;;12.90;6.05;;;;;;;;;;5114087;28;20543;-70
2021/08/07 04:12:55;;;;;;;15.10;5.72;;;;;;;;;;5114700;28;20081;-68
2021/08/07 04:15:21;;;;;;;17.00;6.15;;;;;;;;;;5113673;28;20106;-68
2021/08/07 04:17:48;;;;;;;16.70;6.72;;;;;;;;;;5114951;28;20160;-69
2021/08/07 04:20:14;;;;;;;16.63;6.85;;;;;;;;;;5114596;28;20016;-68
2021/08/07 04:22:40;;;;;;;15.90;7.18;;;;;;;;;;5115244;28;20498;-70
2021/08/07 04:25:07;;;;;;;18.38;6.80;;;;;;;;;;5113466;28;20028;-69
2021/08/07 04:27:36;;;;;;;19.35;7.25;;;;;;;;;;5114437;28;20043;-70
2021/08/07 04:30:03;;;;;;;26.38;7.70;;;;;;;;;;5114553;28;20046;-69
2021/08/07 04:32:29;;;;;;;17.70;7.75;;;;;;;;;;5114305;28;20157;-69
2021/08/07 04:34:56;;;;;;;17.15;7.20;;;;;;;;;;5114860;28;20157;-69
2021/08/07 04:37:22;;;;;;;15.18;7.38;;;;;;;;;;5114491;28;20055;-69
2021/08/07 04:39:48;;;;;;;11.57;6.85;;;;;;;;;;5114442;28;20028;-68
2021/08/07 04:42:15;;;;;;;15.02;6.88;;;;;;;;;;5114376;28;20063;-69
2021/08/07 04:44:41;;;;;;;14.70;7.13;;;;;;;;;;5113090;28;20111;-69
2021/08/07 04:47:07;;;;;;;11.55;6.63;;;;;;;;;;5113023;28;20123;-69
2021/08/07 04:49:34;;;;;;;16.85;6.30;;;;;;;;;;5128576;27;20519;-68
2021/08/07 04:52:00;;;;;;;15.90;7.70;;;;;;;;;;5134858;27;20033;-67
2021/08/07 04:54:27;;;;;;;11.00;6.60;;;;;;;;;;5134741;27;20022;-69
2021/08/07 04:56:53;;;;;;;16.35;7.47;;;;;;;;;;5116228;27;20023;-67
2021/08/07 04:59:19;;;;;;;12.32;6.70;;;;;;;;;;5134704;27;20027;-67
2021/08/07 05:01:46;;;;;;;13.30;6.30;;;;;;;;;;5134575;27;20045;-68
2021/08/07 05:04:12;;;;;;;17.42;6.93;;;;;;;;;;5134575;27;20067;-68
2021/08/07 05:06:39;;;;;;;16.88;7.63;;;;;;;;;;5134714;27;20026;-70
2021/08/07 05:09:06;;;;;;;22.88;7.18;;;;;;;;;;5134486;27;20019;-70
2021/08/07 05:11:32;;;;;;;14.50;6.55;;;;;;;;;;5115543;27;20031;-68
2021/08/07 05:14:01;;;;;;;18.25;6.68;;;;;;;;;;5115947;27;20015;-68
2021/08/07 05:16:27;;;;;;;11.90;6.70;;;;;;;;;;5115884;27;20023;-68
2021/08/07 05:18:53;;;;;;;13.40;6.78;;;;;;;;;;5134665;27;20098;-68
2021/08/07 05:21:19;;;;;;;10.80;6.47;;;;;;;;;;5134157;27;20027;-68
2021/08/07 05:23:45;;;;;;;25.38;7.25;;;;;;;;;;5134283;27;20059;-69
2021/08/07 05:26:11;;;;;;;19.75;7.93;;;;;;;;;;5116113;27;20375;-68
2021/08/07 05:28:38;;;;;;;16.60;6.47;;;;;;;;;;5115709;27;20131;-67
2021/08/07 05:31:04;;;;;;;16.08;6.35;;;;;;;;;;5134285;27;20118;-68
2021/08/07 05:33:30;;;;;;;18.73;6.35;;;;;;;;;;5134164;27;20098;-69
2021/08/07 05:35:56;;;;;;;14.00;6.90;;;;;;;;;;5115549;27;20055;-69
2021/08/07 05:38:22;;;;;;;15.35;5.90;;;;;;;;;;5134306;27;20033;-70
2021/08/07 05:40:49;;;;;;;18.63;6.50;;;;;;;;;;5115634;27;20039;-70
2021/08/07 05:43:15;;;;;;;32.10;8.00;;;;;;;;;;5134028;27;20062;-69
2021/08/07 05:45:41;;;;;;;25.73;7.35;;;;;;;;;;5134255;28;20027;-70
2021/08/07 05:48:07;;;;;;;31.70;7.15;;;;;;;;;;5114948;28;20016;-71
2021/08/07 05:50:34;;;;;;;16.40;6.20;;;;;;;;;;5134041;28;20356;-67
2021/08/07 05:53:00;;;;;;;17.58;6.53;;;;;;;;;;5134008;28;20073;-68
2021/08/07 05:55:26;;;;;;;13.63;6.00;;;;;;;;;;5115482;28;20022;-68
2021/08/07 05:57:53;;;;;;;18.52;8.10;;;;;;;;;;5115453;28;20023;-69
2021/08/07 06:00:19;;;;;;;32.25;9.05;;;;;;;;;;5133514;28;20519;-70
2021/08/07 06:02:45;;;;;;;31.83;9.60;;;;;;;;;;5115488;28;20035;-70
2021/08/07 06:05:11;;;;;;;19.23;8.88;;;;;;;;;;5133568;28;20027;-68
2021/08/07 06:07:37;;;;;;;21.88;9.48;;;;;;;;;;5134093;28;20106;-69
2021/08/07 06:10:04;;;;;;;15.70;6.60;;;;;;;;;;5115318;28;20110;-70
2021/08/07 06:12:30;;;;;;;19.77;6.97;;;;;;;;;;5115352;28;20110;-69
2021/08/07 06:14:56;;;;;;;17.58;5.68;;;;;;;;;;5133984;28;20111;-70
2021/08/07 06:17:22;;;;;;;19.77;6.43;;;;;;;;;;5131798;28;20023;-70
2021/08/07 06:19:49;;;;;;;18.05;5.60;;;;;;;;;;5132338;28;20023;-70
2021/08/07 06:22:15;;;;;;;13.07;5.28;;;;;;;;;;5133666;28;20035;-70
2021/08/07 06:24:41;;;;;;;32.53;8.68;;;;;;;;;;5135860;27;20058;-70
2021/08/07 06:27:07;;;;;;;17.92;7.53;;;;;;;;;;5137687;27;20038;-70
2021/08/07 06:29:33;;;;;;;30.58;6.38;;;;;;;;;;5137813;27;20027;-68
2021/08/07 06:32:00;;;;;;;16.42;5.10;;;;;;;;;;5137855;27;20019;-72
2021/08/07 06:34:26;;;;;;;14.10;4.40;;;;;;;;;;5137480;27;20106;-71
2021/08/07 06:36:52;;;;;;;9.25;3.30;;;;;;;;;;5137446;27;20155;-71
2021/08/07 06:39:18;;;;;;;15.35;4.13;;;;;;;;;;5118864;27;20110;-71
2021/08/07 06:41:44;;;;;;;10.77;3.40;;;;;;;;;;5118858;27;20118;-69
2021/08/07 06:44:11;;;;;;;8.75;2.90;;;;;;;;;;5137310;27;20024;-70
2021/08/07 06:46:37;;;;;;;15.50;3.67;;;;;;;;;;5137494;27;20023;-71
2021/08/07 06:49:03;;;;;;;10.20;3.08;;;;;;;;;;5118278;27;20051;-70
2021/08/07 06:51:29;;;;;;;12.93;3.00;;;;;;;;;;5137061;27;20027;-71
2021/08/07 06:53:55;;;;;;;11.32;2.65;;;;;;;;;;5137013;27;20031;-70
2021/08/07 06:56:21;;;;;;;12.02;2.88;;;;;;;;;;5136683;27;20522;-70
2021/08/07 06:58:48;;;;;;;6.57;3.05;;;;;;;;;;5136975;27;20024;-71
2021/08/07 07:01:14;;;;;;;7.00;2.50;;;;;;;;;;5136775;27;20038;-71
2021/08/07 07:03:40;;;;;;;8.48;2.65;;;;;;;;;;5118402;27;20163;-71
2021/08/07 07:06:06;;;;;;;11.63;2.40;;;;;;;;;;5136771;27;20102;-71
2021/08/07 07:08:33;;;;;;;3.03;2.20;;;;;;;;;;5136993;27;20124;-70
2021/08/07 07:10:59;;;;;;;4.35;2.28;;;;;;;;;;5136683;27;20023;-71
2021/08/07 07:13:25;;;;;;;9.13;2.47;;;;;;;;;;5137026;27;20027;-71
2021/08/07 07:15:51;;;;;;;6.60;2.53;;;;;;;;;;5136386;27;20061;-71
2021/08/07 07:18:17;;;;;;;5.25;2.38;;;;;;;;;;5136615;27;20028;-71
2021/08/07 07:20:44;;;;;;;6.20;2.30;;;;;;;;;;5136483;27;20027;-71
2021/08/07 07:23:12;;;;;;;3.00;2.20;;;;;;;;;;5136545;27;20046;-71
2021/08/07 07:25:38;;;;;;;2.78;2.05;;;;;;;;;;5136225;27;20419;-71
2021/08/07 07:28:04;;;;;;;7.82;2.42;;;;;;;;;;5118002;27;20026;-71
2021/08/07 07:30:30;;;;;;;3.65;2.08;;;;;;;;;;5117635;27;20110;-70
2021/08/07 07:32:57;;;;;;;3.15;1.83;;;;;;;;;;5117987;27;20034;-71
2021/08/07 07:35:23;;;;;;;4.70;2.15;;;;;;;;;;5136156;27;20023;-71
2021/08/07 07:37:50;;;;;;;5.30;2.28;;;;;;;;;;5136210;27;20031;-71
2021/08/07 07:40:16;;;;;;;6.32;2.50;;;;;;;;;;5135817;27;20023;-71
2021/08/07 07:42:42;;;;;;;2.83;2.53;;;;;;;;;;5136278;27;20063;-71
2021/08/07 07:45:09;;;;;;;3.80;2.70;;;;;;;;;;5136074;27;20094;-72
2021/08/07 07:47:35;;;;;;;4.60;2.42;;;;;;;;;;5136065;27;20051;-71
2021/08/07 07:50:01;;;;;;;5.45;2.10;;;;;;;;;;5136047;27;20043;-70
2021/08/07 07:52:28;;;;;;;3.30;2.13;;;;;;;;;;5135797;27;20527;-72
2021/08/07 07:54:54;;;;;;;6.72;2.10;;;;;;;;;;5117567;27;20423;-72
2021/08/07 07:57:22;;;;;;;4.43;1.75;;;;;;;;;;5117438;27;20127;-71
2021/08/07 07:59:48;;;;;;;2.03;1.92;;;;;;;;;;5135860;27;20027;-71
2021/08/07 08:02:15;;;;;;;5.53;2.28;;;;;;;;;;5135745;27;20055;-71
2021/08/07 08:04:41;;;;;;;4.68;2.13;;;;;;;;;;5135464;27;20112;-72
2021/08/07 08:07:07;;;;;;;5.57;2.45;;;;;;;;;;5135662;27;20023;-71
2021/08/07 08:09:33;;;;;;;3.45;1.85;;;;;;;;;;5117113;27;20023;-72
2021/08/07 08:12:00;;;;;;;5.38;2.50;;;;;;;;;;5116799;27;20126;-71
2021/08/07 08:14:26;;;;;;;8.27;2.92;;;;;;;;;;5117062;27;20143;-71
2021/08/07 08:16:52;;;;;;;5.75;1.98;;;;;;;;;;5116569;27;20030;-71
2021/08/07 08:19:18;;;;;;;7.18;2.05;;;;;;;;;;5135404;27;20023;-71
2021/08/07 08:21:45;;;;;;;8.23;2.58;;;;;;;;;;5135332;27;20379;-71
2021/08/07 08:24:11;;;;;;;3.80;2.15;;;;;;;;;;5135393;27;20054;-72
2021/08/07 08:26:39;;;;;;;7.10;2.30;;;;;;;;;;5135024;27;20087;-72
2021/08/07 08:29:05;;;;;;;5.55;2.00;;;;;;;;;;5135458;27;20424;-72
2021/08/07 08:31:31;;;;;;;4.50;2.15;;;;;;;;;;5135116;27;20047;-71
2021/08/07 08:33:57;;;;;;;5.43;2.22;;;;;;;;;;5116518;27;20102;-72
2021/08/07 08:36:23;;;;;;;5.57;2.00;;;;;;;;;;5116617;27;20160;-72
2021/08/07 08:38:49;;;;;;;3.05;2.08;;;27.90;72.00;;;;;;5135065;27;20094;-72
2021/08/07 08:41:15;;;;;;;3.05;2.20;;;27.90;72.30;;;;;;5116414;27;20134;-72
2021/08/07 08:43:44;;;;;;;8.02;2.45;;;28.00;72.20;;;;;;5134933;27;20031;-72
2021/08/07 08:46:10;;;;;;;6.40;2.10;;;28.20;71.20;;;;;;5134325;27;20023;-72
2021/08/07 08:48:40;;;;;;;9.07;2.47;;;28.30;70.40;;;;;;5134350;27;20054;-72
2021/08/07 08:51:08;;;;;;;3.72;1.80;;;28.40;69.80;;;;;;5134527;27;20027;-71
2021/08/07 08:53:41;;;;;;;2.80;1.75;;;28.50;68.80;;;;;;5116388;27;20023;-72
2021/08/07 08:56:08;;;;;;;15.65;2.42;;;28.60;69.60;;;;;;5134752;27;20027;-72
2021/08/07 08:58:36;;;;;;;7.03;1.80;;;28.80;68.90;;;;;;5116173;27;20026;-71
2021/08/07 09:01:08;;;;;;;3.05;1.60;;;28.90;68.10;;;;;;5115816;27;20116;-71
2021/08/07 09:03:34;;;;;;;3.10;1.33;;;29.00;67.30;;;;;;5116273;27;20023;-72
2021/08/07 09:06:01;;;;;;;1.40;1.30;;;29.20;67.70;;;;;;5115796;27;20023;-72
2021/08/07 09:08:27;;;;;;;5.68;1.25;;;;;;;;;;5134538;27;20478;-72
2021/08/07 09:11:32;;;;;;;7.30;1.42;;;29.30;65.90;;;;;;5115983;27;20035;-72
2021/08/07 09:14:17;;;;;;;3.55;1.30;;;29.60;66.10;;;;;;5014349;28;20037;-71
2021/08/07 09:17:01;;;;;;;2.28;1.48;;;29.50;64.10;;;;;;5014370;28;20378;-73
2021/08/07 09:19:41;;;;;;;3.33;1.60;;;29.80;63.70;;;;;;5030560;28;20037;-72
2021/08/07 09:22:20;;;;;;;4.03;1.40;;;30.00;65.10;;;;;;5013979;28;20038;-74
2021/08/07 09:25:05;;;;;;;1.00;1.00;;;30.10;64.20;;;;;;5014154;28;20429;-73
2021/08/07 09:27:53;;;;;;;2.78;1.15;;;30.20;63.20;;;;;;5014402;28;20517;-74
2021/08/07 09:30:19;;;;;;;2.60;1.23;;;30.30;62.40;;;;;;5030646;28;20065;-72
2021/08/07 09:32:47;;;;;;;2.03;1.13;;;;;;;;;;5030777;28;20704;-71
2021/08/07 09:35:15;;;;;;;1.70;1.30;;;;;;;;;;5030688;28;20029;-71
2021/08/07 09:37:41;;;;;;;1.35;1.25;;;30.70;93.60;;;;;;5030641;28;20564;-72
2021/08/07 09:40:10;;;;;;;2.58;1.40;;;30.80;90.70;;;;;;5030303;28;20044;-72
2021/08/07 09:42:54;;;;;;;1.60;1.50;;;;;;;;;;5029974;28;20045;-73
2021/08/07 09:45:24;;;;;;;1.50;1.40;;;31.00;94.40;;;;;;5108856;27;20108;-72
2021/08/07 09:48:18;;;;;;;1.97;1.20;;;31.20;85.00;;;;;;5128581;28;20050;-71
2021/08/07 09:50:44;;;;;;;3.35;1.38;;;31.30;77.70;;;;;;5130388;28;20387;-72
2021/08/07 09:53:21;;;;;;;2.28;1.10;;;31.50;86.20;;;;;;5112876;28;20020;-70
2021/08/07 09:56:01;;;;;;;1.05;1.00;;;31.50;82.00;;;;;;5127721;28;20088;-71
2021/08/07 09:58:26;;;;;;;1.85;1.02;;;31.70;81.20;;;;;;5132121;27;20066;-72
2021/08/07 10:00:53;;;;;;;3.75;1.45;;;;;;;;;;5137754;27;20063;-71
2021/08/07 10:03:24;;;;;;;1.13;1.13;;;32.00;93.40;;;;;;5138051;27;20020;-72
2021/08/07 10:05:50;;;;;;;;;;;32.10;86.50;;;;;;5138443;27;20031;-72
2021/08/07 10:08:17;;;;;;;1.20;1.10;;;32.20;89.10;;;;;;5119229;27;19904;-72
2021/08/07 10:10:44;;;;;;;2.47;1.17;;;;;;;;;;5119490;27;20035;-71
2021/08/07 10:13:11;;;;;;;4.03;1.55;;;;;;;;;;5119480;27;20110;-73
2021/08/07 10:15:39;;;;;;;5.53;1.38;;;;;;;;;;5137582;27;20076;-72
2021/08/07 10:18:06;;;;;;;4.25;1.15;;;;;;;;;;5137554;27;20533;-72
2021/08/07 10:20:35;;;;;;;1.40;1.30;;;32.80;54.90;;;;;;5137611;27;20098;-72
2021/08/07 10:23:01;;;;;;;5.72;1.20;;;32.90;55.20;;;;;;5137675;27;20065;-74
2021/08/07 10:25:27;;;;;;;2.78;1.40;;;33.00;55.70;;;;;;5137698;27;20051;-71
2021/08/07 10:27:59;;;;;;;3.28;1.30;;;33.10;55.30;;;;;;5137543;27;20031;-72
2021/08/07 10:30:25;;;;;;;1.17;1.00;;;33.10;54.90;;;;;;5119032;27;20055;-73
2021/08/07 10:32:56;;;;;;;3.08;1.13;;;33.40;54.00;;;;;;5118942;27;20019;-74
2021/08/07 10:35:27;;;;;;;2.17;1.20;;;33.90;54.70;;;;;;5137507;27;20030;-73
2021/08/07 10:37:58;;;;;;;3.35;1.13;;;34.30;53.30;;;;;;5137412;27;20023;-73
2021/08/07 10:40:25;;;;;;;2.25;1.30;;;34.60;52.30;;;;;;5137314;27;20023;-72
2021/08/07 10:42:53;;;;;;;1.33;1.10;;;35.30;51.30;;;;;;5118794;27;20031;-72
2021/08/07 10:45:20;;;;;;;2.45;1.30;;;36.00;51.10;;;;;;5137009;27;20051;-71
2021/08/07 10:47:48;;;;;;;1.88;1.02;;;36.50;48.90;;;;;;5118580;27;20356;-71
2021/08/07 10:50:28;;;;;;;2.42;1.17;;;36.90;48.80;;;;;;5117711;27;20364;-70
2021/08/07 10:52:57;;;;;;;1.88;1.10;;;37.20;47.10;;;;;;5117032;27;20051;-73
2021/08/07 10:55:41;;;;;;;1.08;1.00;;;37.70;48.00;;;;;;5136473;27;20103;-74
2021/08/07 10:58:49;;;;;;;1.40;1.30;;;38.20;47.00;;;;;;5115790;27;20500;-74
2021/08/07 11:01:25;;;;;;;2.95;1.40;;;38.70;47.60;;;;;;5133722;27;20047;-71
2021/08/07 11:04:00;;;;;;;1.42;1.33;;;39.40;45.30;;;;;;5136784;27;20027;-70
2021/08/07 11:06:39;;;;;;;1.80;1.17;;;39.70;44.20;;;;;;5118331;27;20080;-70
2021/08/07 11:09:17;;;;;;;2.85;1.10;;;40.20;44.10;;;;;;5117844;27;20023;-70
2021/08/07 11:11:43;;;;;;;1.80;1.25;;;40.50;43.90;;;;;;5136548;27;20084;-72
2021/08/07 11:14:21;;;;;;;3.10;1.25;;;41.00;42.90;;;;;;5137038;27;20422;-71
2021/08/07 11:17:05;;;;;;;2.05;1.58;;;41.30;41.10;;;;;;5118187;27;20038;-70
2021/08/07 11:20:00;;;;;;;2.17;1.30;;;41.60;42.80;;;;;;5136701;27;20042;-71
2021/08/07 11:22:36;;;;;;;1.77;1.67;;;41.90;41.10;;;;;;5136379;27;20035;-71
2021/08/07 11:25:17;;;;;;;1.80;1.40;;;42.10;41.00;;;;;;5133997;27;20073;-71
2021/08/07 11:30:22;;;;;;;4.22;1.40;;;42.60;41.00;;;;;;5135816;27;20122;-72
2021/08/07 11:33:03;;;;;;;4.30;1.48;;;43.00;40.30;;;;;;5136529;27;20118;-72
2021/08/07 11:35:33;;;;;;;2.42;1.67;;;42.80;39.70;;;;;;5117694;27;20030;-70
2021/08/07 11:38:18;;;;;;;3.65;1.45;;;43.30;39.70;;;;;;5117655;27;20433;-72
2021/08/07 11:41:06;;;;;;;1.65;1.48;;;43.60;40.00;;;;;;5117635;27;20035;-71
2021/08/07 11:43:32;;;;;;;2.17;1.35;;;43.80;39.70;;;;;;5117424;27;20023;-72
2021/08/07 11:45:59;;;;;;;3.47;1.70;;;44.00;40.20;;;;;;5117705;27;20019;-71
2021/08/07 11:48:32;;;;;;;3.42;1.67;;;43.80;39.30;;;;;;5135628;27;20124;-72
2021/08/07 11:51:01;;;;;;;3.72;1.35;;;44.30;38.40;;;;;;5136055;27;20478;-72
2021/08/07 11:53:28;;;;;;;2.97;1.50;;;44.60;38.90;;;;;;5135956;27;20019;-74
2021/08/07 11:55:58;;;;;;;1.63;1.35;;;44.40;37.40;;;;;;5135808;27;20025;-71
2021/08/07 11:58:24;;;;;;;2.88;1.40;;;43.80;38.40;;;;;;5117335;27;20429;-71
2021/08/07 12:00:50;;;;;;;1.33;1.23;;;44.70;37.90;;;;;;5135845;27;20035;-73
2021/08/07 12:03:17;;;;;;;1.30;1.13;;;45.00;37.50;;;;;;5135585;27;20027;-71
2021/08/07 12:06:00;;;;;;;3.05;1.42;;;44.40;36.90;;;;;;5135398;27;20031;-71
2021/08/07 12:08:31;;;;;;;3.40;1.30;;;45.10;36.90;;;;;;5117131;27;20031;-72
2021/08/07 12:11:00;;;;;;;2.70;1.40;;;45.00;38.00;;;;;;5117066;27;20039;-70
2021/08/07 12:13:30;;;;;;;2.13;1.17;;;45.70;37.00;;;;;;5135556;27;20031;-72
2021/08/07 12:16:07;;;;;;;1.33;1.20;;;46.20;37.00;;;;;;5135422;27;20024;-71
2021/08/07 12:18:40;;;;;;;3.63;1.10;;;46.40;36.20;;;;;;5135457;27;20042;-70
2021/08/07 12:21:06;;;;;;;1.67;1.55;;;46.80;36.10;;;;;;5134497;27;20091;-72
2021/08/07 12:23:46;;;;;;;1.30;1.30;;;47.20;36.30;;;;;;5134979;27;20110;-70
2021/08/07 12:26:48;;;;;;;1.35;1.25;;;47.30;35.60;;;;;;5135384;27;20023;-71
2021/08/07 12:29:25;;;;;;;1.00;0.90;;;47.50;35.50;;;;;;5131364;27;20494;-68
2021/08/07 12:32:02;;;;;;;1.30;1.20;;;47.50;34.40;;;;;;5115739;27;20487;-71
2021/08/07 12:34:39;;;;;;;1.27;1.00;;;47.50;34.70;;;;;;5134982;27;20059;-70
2021/08/07 12:37:12;;;;;;;1.33;1.23;;;48.00;34.40;;;;;;5116409;27;20494;-71
2021/08/07 12:39:51;;;;;;;6.07;1.40;;;48.30;35.00;;;;;;5134903;27;20106;-69
2021/08/07 12:42:23;;;;;;;4.63;1.15;;;48.20;34.50;;;;;;5134832;27;20027;-71
2021/08/07 12:45:07;;;;;;;0.90;0.90;;;48.40;34.50;;;;;;5134788;27;20027;-69
2021/08/07 12:47:33;;;;;;;1.25;1.15;;;48.40;33.70;;;;;;5135044;27;20030;-70
2021/08/07 12:50:17;;;;;;;1.48;1.38;;;48.80;34.30;;;;;;5135417;27;20051;-69
2021/08/07 12:52:55;;;;;;;1.88;1.27;;;48.80;33.60;;;;;;5116682;27;20396;-70
2021/08/07 12:55:21;;;;;;;1.88;1.60;;;49.30;33.10;;;;;;5134617;27;20023;-70
2021/08/07 12:57:47;;;;;;;2.50;1.20;;;49.50;33.70;;;;;;5134382;27;20032;-70
2021/08/07 13:00:14;;;;;;;1.35;1.20;;;49.70;33.40;;;;;;5116111;27;20029;-69
2021/08/07 13:02:40;;;;;;;1.20;1.15;;;49.70;32.90;;;;;;5116043;27;20042;-70
2021/08/07 13:05:07;;;;;;;2.35;1.00;;;50.00;32.50;;;;;;5134637;27;20023;-68
2021/08/07 13:07:36;;;;;;;3.15;1.30;;;50.10;33.00;;;;;;5134087;27;20031;-69
2021/08/07 13:10:21;;;;;;;2.97;1.20;;;50.10;32.50;;;;;;5116028;27;20466;-70
2021/08/07 13:12:48;;;;;;;6.32;1.45;;;50.50;33.00;;;;;;5134291;27;20023;-72
2021/08/07 13:15:14;;;;;;;5.38;1.20;;;50.70;33.00;;;;;;5133995;27;20102;-72
2021/08/07 13:17:55;;;;;;;1.75;1.17;;;50.80;32.30;;;;;;5134332;27;20106;-72
2021/08/07 13:20:37;;;;;;;2.85;1.02;;;51.00;31.80;;;;;;5134213;27;20110;-72
2021/08/07 13:23:04;;;;;;;8.57;1.50;;;51.20;31.20;;;;;;5134277;27;20144;-73
2021/08/07 13:25:30;;;;;;;1.50;1.30;;;51.10;31.50;;;;;;5134240;27;20027;-72
2021/08/07 13:27:56;;;;;;;2.95;1.10;;;51.20;31.50;;;;;;5115942;27;20519;-72
2021/08/07 13:30:24;;;;;;;2.20;1.10;;;51.30;32.00;;;;;;5115857;28;20059;-74
2021/08/07 13:33:04;;;;;;;1.42;1.23;;;51.40;31.30;;;;;;5132537;27;20035;-72
2021/08/07 13:35:31;;;;;;;1.00;1.00;;;51.60;31.30;;;;;;5115768;28;20456;-72
2021/08/07 13:37:58;;;;;;;2.22;1.40;;;51.60;31.60;;;;;;5134118;27;20034;-73
2021/08/07 13:40:26;;;;;;;1.10;1.10;;;51.70;31.10;;;;;;5133764;27;20031;-74
2021/08/07 13:42:53;;;;;;;1.77;1.02;;;51.80;31.10;;;;;;5115547;27;20025;-71
2021/08/07 13:45:20;;;;;;;0.98;0.93;;;52.00;31.40;;;;;;5133887;27;20098;-72
2021/08/07 13:47:46;;;;;;;1.10;1.10;;;51.90;30.40;;;;;;5115250;28;20027;-71
2021/08/07 13:50:12;;;;;;;2.28;1.17;;;52.00;31.40;;;;;;5134126;28;20067;-71
2021/08/07 13:52:38;;;;;;;1.40;1.30;;;52.10;30.90;;;;;;5133964;28;20031;-72
2021/08/07 13:55:06;;;;;;;1.63;1.40;;;52.10;30.70;;;;;;5134029;28;20038;-72
2021/08/07 13:57:32;;;;;;;1.75;0.80;;;52.20;30.80;;;;;;5115387;28;20074;-72
2021/08/07 13:59:58;;;;;;;1.38;1.27;;;52.20;30.60;;;;;;5132837;28;20051;-72
2021/08/07 14:02:26;;;;;;;2.35;0.90;;;52.20;30.90;;;;;;5133310;28;20432;-72
2021/08/07 14:04:52;;;;;;;1.88;1.05;;;52.40;31.20;;;;;;5133567;28;20022;-71